sensor_id;sensor_type;location;lat;lon;timestamp;P1;durP1;ratioP1;P2;durP2;ratioP2
73239;SDS011;61452;40.054;4.110;2023-06-10T00:05:01;2.63;;;1.80;;
73239;SDS011;61452;40.054;4.110;2023-06-10T00:10:05;3.33;;;2.00;;
73239;SDS011;61452;40.054;4.110;2023-06-10T00:15:08;3.45;;;1.90;;
73239;SDS011;61452;40.054;4.110;2023-06-10T00:25:14;3.42;;;1.77;;
73239;SDS011;61452;40.054;4.110;2023-06-10T00:30:16;1.73;;;1.60;;
73239;SDS011;61452;40.054;4.110;2023-06-10T00:35:18;2.88;;;1.70;;
73239;SDS011;61452;40.054;4.110;2023-06-10T00:40:21;2.80;;;1.98;;
73239;SDS011;61452;40.054;4.110;2023-06-10T00:45:23;4.10;;;1.75;;
73239;SDS011;61452;40.054;4.110;2023-06-10T00:50:25;2.00;;;1.60;;
73239;SDS011;61452;40.054;4.110;2023-06-10T00:55:27;2.67;;;1.75;;
73239;SDS011;61452;40.054;4.110;2023-06-10T01:00:29;3.03;;;1.88;;
73239;SDS011;61452;40.054;4.110;2023-06-10T01:05:32;3.75;;;2.17;;
73239;SDS011;61452;40.054;4.110;2023-06-10T01:15:42;2.75;;;1.70;;
73239;SDS011;61452;40.054;4.110;2023-06-10T01:20:46;4.85;;;2.10;;
73239;SDS011;61452;40.054;4.110;2023-06-10T01:25:53;2.40;;;1.80;;
73239;SDS011;61452;40.054;4.110;2023-06-10T01:36:10;3.13;;;1.85;;
73239;SDS011;61452;40.054;4.110;2023-06-10T01:41:15;3.40;;;1.80;;
73239;SDS011;61452;40.054;4.110;2023-06-10T01:46:18;2.30;;;1.58;;
73239;SDS011;61452;40.054;4.110;2023-06-10T01:51:21;3.30;;;1.80;;
73239;SDS011;61452;40.054;4.110;2023-06-10T01:56:24;2.60;;;1.70;;
73239;SDS011;61452;40.054;4.110;2023-06-10T02:01:26;3.83;;;1.92;;
73239;SDS011;61452;40.054;4.110;2023-06-10T02:06:28;2.97;;;1.73;;
73239;SDS011;61452;40.054;4.110;2023-06-10T02:11:30;2.30;;;1.73;;
73239;SDS011;61452;40.054;4.110;2023-06-10T02:16:32;2.70;;;2.10;;
73239;SDS011;61452;40.054;4.110;2023-06-10T02:21:34;2.92;;;1.77;;
73239;SDS011;61452;40.054;4.110;2023-06-10T02:26:36;3.00;;;1.75;;
73239;SDS011;61452;40.054;4.110;2023-06-10T02:31:38;3.28;;;1.90;;
73239;SDS011;61452;40.054;4.110;2023-06-10T02:36:42;2.70;;;1.80;;
73239;SDS011;61452;40.054;4.110;2023-06-10T02:41:44;3.92;;;1.73;;
73239;SDS011;61452;40.054;4.110;2023-06-10T02:46:48;3.35;;;1.90;;
73239;SDS011;61452;40.054;4.110;2023-06-10T02:51:51;3.75;;;2.20;;
73239;SDS011;61452;40.054;4.110;2023-06-10T02:56:56;2.75;;;2.00;;
73239;SDS011;61452;40.054;4.110;2023-06-10T03:02:01;2.70;;;1.70;;
73239;SDS011;61452;40.054;4.110;2023-06-10T03:07:07;2.72;;;1.88;;
73239;SDS011;61452;40.054;4.110;2023-06-10T03:12:10;3.28;;;1.90;;
73239;SDS011;61452;40.054;4.110;2023-06-10T03:17:17;4.13;;;1.75;;
73239;SDS011;61452;40.054;4.110;2023-06-10T03:22:20;1.98;;;1.70;;
73239;SDS011;61452;40.054;4.110;2023-06-10T03:27:30;2.53;;;1.67;;
73239;SDS011;61452;40.054;4.110;2023-06-10T03:32:36;2.38;;;1.67;;
73239;SDS011;61452;40.054;4.110;2023-06-10T03:37:41;2.60;;;1.75;;
73239;SDS011;61452;40.054;4.110;2023-06-10T03:42:44;3.97;;;1.50;;
73239;SDS011;61452;40.054;4.110;2023-06-10T03:47:49;3.92;;;1.70;;
73239;SDS011;61452;40.054;4.110;2023-06-10T03:52:55;2.78;;;1.85;;
73239;SDS011;61452;40.054;4.110;2023-06-10T03:58:00;2.30;;;1.70;;
73239;SDS011;61452;40.054;4.110;2023-06-10T04:03:02;2.78;;;1.65;;
73239;SDS011;61452;40.054;4.110;2023-06-10T04:08:11;2.47;;;1.63;;
73239;SDS011;61452;40.054;4.110;2023-06-10T04:13:13;2.40;;;1.80;;
73239;SDS011;61452;40.054;4.110;2023-06-10T04:18:24;2.95;;;1.95;;
73239;SDS011;61452;40.054;4.110;2023-06-10T04:23:29;2.40;;;1.65;;
73239;SDS011;61452;40.054;4.110;2023-06-10T04:28:32;2.90;;;1.80;;
73239;SDS011;61452;40.054;4.110;2023-06-10T04:33:34;3.28;;;1.60;;
73239;SDS011;61452;40.054;4.110;2023-06-10T04:38:38;3.55;;;2.00;;
73239;SDS011;61452;40.054;4.110;2023-06-10T04:43:40;3.30;;;1.98;;
73239;SDS011;61452;40.054;4.110;2023-06-10T04:48:43;2.25;;;1.40;;
73239;SDS011;61452;40.054;4.110;2023-06-10T04:53:48;2.17;;;1.60;;
73239;SDS011;61452;40.054;4.110;2023-06-10T04:58:50;2.97;;;1.63;;
73239;SDS011;61452;40.054;4.110;2023-06-10T05:03:52;3.35;;;2.15;;
73239;SDS011;61452;40.054;4.110;2023-06-10T05:08:54;4.93;;;1.80;;
73239;SDS011;61452;40.054;4.110;2023-06-10T05:13:56;2.85;;;1.75;;
73239;SDS011;61452;40.054;4.110;2023-06-10T05:18:58;2.90;;;1.75;;
73239;SDS011;61452;40.054;4.110;2023-06-10T05:24:00;3.92;;;1.88;;
73239;SDS011;61452;40.054;4.110;2023-06-10T05:29:03;3.60;;;1.92;;
73239;SDS011;61452;40.054;4.110;2023-06-10T05:34:06;3.13;;;1.70;;
73239;SDS011;61452;40.054;4.110;2023-06-10T05:39:09;2.00;;;1.50;;
73239;SDS011;61452;40.054;4.110;2023-06-10T05:49:14;2.55;;;1.80;;
73239;SDS011;61452;40.054;4.110;2023-06-10T05:54:16;2.65;;;1.77;;
73239;SDS011;61452;40.054;4.110;2023-06-10T05:59:18;2.20;;;1.60;;
73239;SDS011;61452;40.054;4.110;2023-06-10T06:04:21;2.20;;;1.75;;
73239;SDS011;61452;40.054;4.110;2023-06-10T06:09:23;3.35;;;1.85;;
73239;SDS011;61452;40.054;4.110;2023-06-10T06:14:25;2.25;;;1.70;;
73239;SDS011;61452;40.054;4.110;2023-06-10T06:19:27;2.42;;;1.58;;
73239;SDS011;61452;40.054;4.110;2023-06-10T06:24:29;2.60;;;2.00;;
73239;SDS011;61452;40.054;4.110;2023-06-10T06:29:32;2.95;;;2.03;;
73239;SDS011;61452;40.054;4.110;2023-06-10T06:34:34;2.92;;;1.67;;
73239;SDS011;61452;40.054;4.110;2023-06-10T06:39:37;2.63;;;1.80;;
73239;SDS011;61452;40.054;4.110;2023-06-10T06:44:39;2.85;;;1.65;;
73239;SDS011;61452;40.054;4.110;2023-06-10T06:49:41;3.38;;;1.80;;
73239;SDS011;61452;40.054;4.110;2023-06-10T06:54:43;2.95;;;1.65;;
73239;SDS011;61452;40.054;4.110;2023-06-10T06:59:45;2.83;;;1.77;;
73239;SDS011;61452;40.054;4.110;2023-06-10T07:04:47;3.05;;;1.70;;
73239;SDS011;61452;40.054;4.110;2023-06-10T07:09:51;2.80;;;1.65;;
73239;SDS011;61452;40.054;4.110;2023-06-10T07:14:54;2.33;;;1.90;;
73239;SDS011;61452;40.054;4.110;2023-06-10T07:19:56;2.33;;;1.70;;
73239;SDS011;61452;40.054;4.110;2023-06-10T07:25:01;3.33;;;1.98;;
73239;SDS011;61452;40.054;4.110;2023-06-10T07:30:04;2.60;;;2.00;;
73239;SDS011;61452;40.054;4.110;2023-06-10T07:35:10;2.67;;;1.85;;
73239;SDS011;61452;40.054;4.110;2023-06-10T07:45:15;1.85;;;1.58;;
73239;SDS011;61452;40.054;4.110;2023-06-10T07:50:17;2.97;;;1.63;;
73239;SDS011;61452;40.054;4.110;2023-06-10T07:55:19;3.05;;;1.70;;
73239;SDS011;61452;40.054;4.110;2023-06-10T08:00:21;2.00;;;1.67;;
73239;SDS011;61452;40.054;4.110;2023-06-10T08:05:23;3.13;;;1.50;;
73239;SDS011;61452;40.054;4.110;2023-06-10T08:10:25;3.15;;;1.73;;
73239;SDS011;61452;40.054;4.110;2023-06-10T08:15:28;2.40;;;1.65;;
73239;SDS011;61452;40.054;4.110;2023-06-10T08:20:30;2.40;;;1.75;;
73239;SDS011;61452;40.054;4.110;2023-06-10T08:25:32;2.50;;;1.75;;
73239;SDS011;61452;40.054;4.110;2023-06-10T08:30:34;1.85;;;1.60;;
73239;SDS011;61452;40.054;4.110;2023-06-10T08:35:36;2.15;;;1.67;;
73239;SDS011;61452;40.054;4.110;2023-06-10T08:40:38;2.60;;;1.70;;
73239;SDS011;61452;40.054;4.110;2023-06-10T08:45:40;3.17;;;1.48;;
73239;SDS011;61452;40.054;4.110;2023-06-10T08:50:45;2.20;;;1.80;;
73239;SDS011;61452;40.054;4.110;2023-06-10T08:55:49;2.47;;;1.60;;
73239;SDS011;61452;40.054;4.110;2023-06-10T09:00:53;2.78;;;1.90;;
73239;SDS011;61452;40.054;4.110;2023-06-10T09:05:56;3.55;;;1.83;;
73239;SDS011;61452;40.054;4.110;2023-06-10T09:10:59;2.13;;;1.60;;
73239;SDS011;61452;40.054;4.110;2023-06-10T09:16:02;2.70;;;1.90;;
73239;SDS011;61452;40.054;4.110;2023-06-10T09:21:05;2.50;;;1.60;;
73239;SDS011;61452;40.054;4.110;2023-06-10T09:26:08;3.05;;;1.70;;
73239;SDS011;61452;40.054;4.110;2023-06-10T09:31:12;2.10;;;1.50;;
73239;SDS011;61452;40.054;4.110;2023-06-10T09:36:22;2.22;;;1.70;;
73239;SDS011;61452;40.054;4.110;2023-06-10T09:41:40;2.67;;;1.85;;
73239;SDS011;61452;40.054;4.110;2023-06-10T09:46:47;2.08;;;1.58;;
73239;SDS011;61452;40.054;4.110;2023-06-10T09:51:53;2.80;;;1.90;;
73239;SDS011;61452;40.054;4.110;2023-06-10T09:56:56;2.30;;;1.70;;
73239;SDS011;61452;40.054;4.110;2023-06-10T10:02:00;2.65;;;1.63;;
73239;SDS011;61452;40.054;4.110;2023-06-10T10:07:02;2.45;;;1.77;;
73239;SDS011;61452;40.054;4.110;2023-06-10T10:12:15;2.25;;;1.50;;
73239;SDS011;61452;40.054;4.110;2023-06-10T10:17:17;2.30;;;1.73;;
73239;SDS011;61452;40.054;4.110;2023-06-10T10:22:25;2.83;;;1.80;;
73239;SDS011;61452;40.054;4.110;2023-06-10T10:27:31;2.65;;;1.80;;
73239;SDS011;61452;40.054;4.110;2023-06-10T10:32:43;3.05;;;1.75;;
73239;SDS011;61452;40.054;4.110;2023-06-10T10:37:57;2.70;;;1.80;;
73239;SDS011;61452;40.054;4.110;2023-06-10T10:43:00;3.58;;;2.05;;
73239;SDS011;61452;40.054;4.110;2023-06-10T10:48:10;3.42;;;1.88;;
73239;SDS011;61452;40.054;4.110;2023-06-10T10:53:13;2.83;;;1.83;;
73239;SDS011;61452;40.054;4.110;2023-06-10T10:58:24;2.60;;;1.90;;
73239;SDS011;61452;40.054;4.110;2023-06-10T11:03:29;2.28;;;1.63;;
73239;SDS011;61452;40.054;4.110;2023-06-10T11:13:34;2.90;;;1.88;;
73239;SDS011;61452;40.054;4.110;2023-06-10T11:18:40;2.95;;;1.75;;
73239;SDS011;61452;40.054;4.110;2023-06-10T11:23:43;1.95;;;1.40;;
73239;SDS011;61452;40.054;4.110;2023-06-10T11:33:48;2.30;;;1.75;;
73239;SDS011;61452;40.054;4.110;2023-06-10T11:39:11;3.15;;;1.70;;
73239;SDS011;61452;40.054;4.110;2023-06-10T11:44:14;3.10;;;1.85;;
73239;SDS011;61452;40.054;4.110;2023-06-10T11:49:20;3.53;;;1.75;;
73239;SDS011;61452;40.054;4.110;2023-06-10T11:54:22;3.78;;;2.05;;
73239;SDS011;61452;40.054;4.110;2023-06-10T11:59:26;4.70;;;1.77;;
73239;SDS011;61452;40.054;4.110;2023-06-10T12:04:29;2.85;;;2.20;;
73239;SDS011;61452;40.054;4.110;2023-06-10T12:09:31;3.10;;;1.90;;
73239;SDS011;61452;40.054;4.110;2023-06-10T12:19:59;4.10;;;2.33;;
73239;SDS011;61452;40.054;4.110;2023-06-10T12:25:03;3.83;;;2.13;;
73239;SDS011;61452;40.054;4.110;2023-06-10T12:30:08;2.72;;;2.17;;
73239;SDS011;61452;40.054;4.110;2023-06-10T12:35:12;4.95;;;2.38;;
73239;SDS011;61452;40.054;4.110;2023-06-10T12:40:16;3.60;;;2.60;;
73239;SDS011;61452;40.054;4.110;2023-06-10T12:45:25;3.05;;;1.88;;
73239;SDS011;61452;40.054;4.110;2023-06-10T12:50:32;3.75;;;2.22;;
73239;SDS011;61452;40.054;4.110;2023-06-10T12:55:34;5.07;;;2.30;;
73239;SDS011;61452;40.054;4.110;2023-06-10T13:00:37;4.72;;;2.22;;
73239;SDS011;61452;40.054;4.110;2023-06-10T13:05:39;4.60;;;2.38;;
73239;SDS011;61452;40.054;4.110;2023-06-10T13:10:41;3.72;;;2.30;;
73239;SDS011;61452;40.054;4.110;2023-06-10T13:15:44;2.88;;;2.00;;
73239;SDS011;61452;40.054;4.110;2023-06-10T13:20:46;2.88;;;2.00;;
73239;SDS011;61452;40.054;4.110;2023-06-10T13:25:48;4.50;;;2.40;;
73239;SDS011;61452;40.054;4.110;2023-06-10T13:30:51;3.22;;;2.08;;
73239;SDS011;61452;40.054;4.110;2023-06-10T13:35:54;3.63;;;2.10;;
73239;SDS011;61452;40.054;4.110;2023-06-10T13:40:56;3.40;;;2.13;;
73239;SDS011;61452;40.054;4.110;2023-06-10T13:45:58;4.03;;;2.40;;
73239;SDS011;61452;40.054;4.110;2023-06-10T13:51:00;3.85;;;2.22;;
73239;SDS011;61452;40.054;4.110;2023-06-10T13:56:02;4.70;;;2.20;;
73239;SDS011;61452;40.054;4.110;2023-06-10T14:01:04;4.22;;;2.30;;
73239;SDS011;61452;40.054;4.110;2023-06-10T14:06:07;4.28;;;2.45;;
73239;SDS011;61452;40.054;4.110;2023-06-10T14:11:09;3.85;;;2.30;;
73239;SDS011;61452;40.054;4.110;2023-06-10T14:16:11;4.68;;;2.20;;
73239;SDS011;61452;40.054;4.110;2023-06-10T14:21:13;3.95;;;2.65;;
73239;SDS011;61452;40.054;4.110;2023-06-10T14:26:15;4.15;;;2.45;;
73239;SDS011;61452;40.054;4.110;2023-06-10T14:31:17;4.70;;;2.40;;
73239;SDS011;61452;40.054;4.110;2023-06-10T14:36:19;5.47;;;2.30;;
73239;SDS011;61452;40.054;4.110;2023-06-10T14:41:21;4.25;;;2.40;;
73239;SDS011;61452;40.054;4.110;2023-06-10T14:46:23;3.67;;;2.30;;
73239;SDS011;61452;40.054;4.110;2023-06-10T14:51:26;3.92;;;2.28;;
73239;SDS011;61452;40.054;4.110;2023-06-10T14:56:28;6.65;;;2.60;;
73239;SDS011;61452;40.054;4.110;2023-06-10T15:01:31;4.30;;;2.40;;
73239;SDS011;61452;40.054;4.110;2023-06-10T15:06:33;4.25;;;2.53;;
73239;SDS011;61452;40.054;4.110;2023-06-10T15:11:35;4.80;;;2.60;;
73239;SDS011;61452;40.054;4.110;2023-06-10T15:16:37;3.97;;;1.95;;
73239;SDS011;61452;40.054;4.110;2023-06-10T15:21:40;5.43;;;2.40;;
73239;SDS011;61452;40.054;4.110;2023-06-10T15:26:42;3.30;;;2.20;;
73239;SDS011;61452;40.054;4.110;2023-06-10T15:31:44;4.00;;;2.45;;
73239;SDS011;61452;40.054;4.110;2023-06-10T15:36:46;3.90;;;2.33;;
73239;SDS011;61452;40.054;4.110;2023-06-10T15:41:48;5.40;;;2.28;;
73239;SDS011;61452;40.054;4.110;2023-06-10T15:46:50;3.63;;;2.28;;
73239;SDS011;61452;40.054;4.110;2023-06-10T15:51:52;5.72;;;2.20;;
73239;SDS011;61452;40.054;4.110;2023-06-10T15:56:54;4.78;;;2.78;;
73239;SDS011;61452;40.054;4.110;2023-06-10T16:01:56;5.00;;;2.33;;
73239;SDS011;61452;40.054;4.110;2023-06-10T16:06:58;3.95;;;2.47;;
73239;SDS011;61452;40.054;4.110;2023-06-10T16:12:00;3.65;;;2.20;;
73239;SDS011;61452;40.054;4.110;2023-06-10T16:17:02;2.72;;;2.10;;
73239;SDS011;61452;40.054;4.110;2023-06-10T16:22:05;4.57;;;2.40;;
73239;SDS011;61452;40.054;4.110;2023-06-10T16:27:07;4.18;;;2.40;;
73239;SDS011;61452;40.054;4.110;2023-06-10T16:32:09;6.55;;;2.75;;
73239;SDS011;61452;40.054;4.110;2023-06-10T16:37:11;6.07;;;2.85;;
73239;SDS011;61452;40.054;4.110;2023-06-10T16:42:13;3.28;;;1.90;;
73239;SDS011;61452;40.054;4.110;2023-06-10T16:47:15;4.82;;;2.60;;
73239;SDS011;61452;40.054;4.110;2023-06-10T16:52:17;3.97;;;2.22;;
73239;SDS011;61452;40.054;4.110;2023-06-10T16:57:19;3.50;;;2.30;;
73239;SDS011;61452;40.054;4.110;2023-06-10T17:02:21;4.72;;;2.53;;
73239;SDS011;61452;40.054;4.110;2023-06-10T17:07:24;4.35;;;2.33;;
73239;SDS011;61452;40.054;4.110;2023-06-10T17:12:26;3.42;;;2.22;;
73239;SDS011;61452;40.054;4.110;2023-06-10T17:17:29;3.67;;;2.38;;
73239;SDS011;61452;40.054;4.110;2023-06-10T17:22:31;3.08;;;2.03;;
73239;SDS011;61452;40.054;4.110;2023-06-10T17:27:33;2.88;;;2.13;;
73239;SDS011;61452;40.054;4.110;2023-06-10T17:32:35;4.85;;;2.50;;
73239;SDS011;61452;40.054;4.110;2023-06-10T17:37:38;2.90;;;1.95;;
73239;SDS011;61452;40.054;4.110;2023-06-10T17:42:40;3.75;;;2.65;;
73239;SDS011;61452;40.054;4.110;2023-06-10T17:47:42;4.57;;;2.17;;
73239;SDS011;61452;40.054;4.110;2023-06-10T17:52:44;2.88;;;2.20;;
73239;SDS011;61452;40.054;4.110;2023-06-10T17:57:47;3.35;;;2.20;;
73239;SDS011;61452;40.054;4.110;2023-06-10T18:02:49;4.25;;;2.05;;
73239;SDS011;61452;40.054;4.110;2023-06-10T18:07:51;4.18;;;2.17;;
73239;SDS011;61452;40.054;4.110;2023-06-10T18:12:53;3.50;;;2.10;;
73239;SDS011;61452;40.054;4.110;2023-06-10T18:17:55;3.08;;;2.13;;
73239;SDS011;61452;40.054;4.110;2023-06-10T18:22:58;2.78;;;1.88;;
73239;SDS011;61452;40.054;4.110;2023-06-10T18:28:00;3.67;;;2.10;;
73239;SDS011;61452;40.054;4.110;2023-06-10T18:33:02;2.97;;;2.28;;
73239;SDS011;61452;40.054;4.110;2023-06-10T18:38:04;3.35;;;2.10;;
73239;SDS011;61452;40.054;4.110;2023-06-10T18:43:06;2.90;;;2.00;;
73239;SDS011;61452;40.054;4.110;2023-06-10T18:48:08;3.88;;;2.10;;
73239;SDS011;61452;40.054;4.110;2023-06-10T18:53:11;3.65;;;2.05;;
73239;SDS011;61452;40.054;4.110;2023-06-10T18:58:13;3.92;;;2.10;;
73239;SDS011;61452;40.054;4.110;2023-06-10T19:03:15;3.28;;;1.98;;
73239;SDS011;61452;40.054;4.110;2023-06-10T19:08:17;3.83;;;2.25;;
73239;SDS011;61452;40.054;4.110;2023-06-10T19:13:19;3.83;;;2.10;;
73239;SDS011;61452;40.054;4.110;2023-06-10T19:18:21;3.13;;;2.20;;
73239;SDS011;61452;40.054;4.110;2023-06-10T19:23:23;2.70;;;1.77;;
73239;SDS011;61452;40.054;4.110;2023-06-10T19:28:26;4.07;;;1.80;;
73239;SDS011;61452;40.054;4.110;2023-06-10T19:33:28;2.63;;;1.95;;
73239;SDS011;61452;40.054;4.110;2023-06-10T19:38:30;3.47;;;2.30;;
73239;SDS011;61452;40.054;4.110;2023-06-10T19:43:32;3.00;;;1.70;;
73239;SDS011;61452;40.054;4.110;2023-06-10T19:48:34;2.33;;;1.65;;
73239;SDS011;61452;40.054;4.110;2023-06-10T19:53:37;3.03;;;1.88;;
73239;SDS011;61452;40.054;4.110;2023-06-10T19:58:39;2.97;;;1.75;;
73239;SDS011;61452;40.054;4.110;2023-06-10T20:03:41;3.63;;;2.10;;
73239;SDS011;61452;40.054;4.110;2023-06-10T20:08:43;3.60;;;1.80;;
73239;SDS011;61452;40.054;4.110;2023-06-10T20:13:45;3.63;;;2.03;;
73239;SDS011;61452;40.054;4.110;2023-06-10T20:18:50;3.03;;;1.83;;
73239;SDS011;61452;40.054;4.110;2023-06-10T20:23:55;3.42;;;2.00;;
73239;SDS011;61452;40.054;4.110;2023-06-10T20:28:57;2.53;;;1.75;;
73239;SDS011;61452;40.054;4.110;2023-06-10T20:34:00;2.25;;;1.55;;
73239;SDS011;61452;40.054;4.110;2023-06-10T20:39:03;3.33;;;1.80;;
73239;SDS011;61452;40.054;4.110;2023-06-10T20:44:05;2.90;;;1.80;;
73239;SDS011;61452;40.054;4.110;2023-06-10T20:49:07;2.45;;;1.92;;
73239;SDS011;61452;40.054;4.110;2023-06-10T20:54:09;3.28;;;1.60;;
73239;SDS011;61452;40.054;4.110;2023-06-10T20:59:11;3.60;;;2.30;;
73239;SDS011;61452;40.054;4.110;2023-06-10T21:04:13;2.13;;;1.90;;
73239;SDS011;61452;40.054;4.110;2023-06-10T21:09:16;3.58;;;2.13;;
73239;SDS011;61452;40.054;4.110;2023-06-10T21:14:18;1.95;;;1.60;;
73239;SDS011;61452;40.054;4.110;2023-06-10T21:19:20;2.63;;;1.80;;
73239;SDS011;61452;40.054;4.110;2023-06-10T21:24:22;3.28;;;1.70;;
73239;SDS011;61452;40.054;4.110;2023-06-10T21:29:24;2.40;;;1.75;;
73239;SDS011;61452;40.054;4.110;2023-06-10T21:34:26;2.95;;;1.60;;
73239;SDS011;61452;40.054;4.110;2023-06-10T21:39:29;2.22;;;1.70;;
73239;SDS011;61452;40.054;4.110;2023-06-10T21:44:31;2.17;;;1.55;;
73239;SDS011;61452;40.054;4.110;2023-06-10T21:49:33;2.72;;;2.15;;
73239;SDS011;61452;40.054;4.110;2023-06-10T21:54:35;2.55;;;2.08;;
73239;SDS011;61452;40.054;4.110;2023-06-10T21:59:37;2.25;;;1.73;;
73239;SDS011;61452;40.054;4.110;2023-06-10T22:04:40;2.60;;;1.75;;
73239;SDS011;61452;40.054;4.110;2023-06-10T22:09:46;1.77;;;1.67;;
73239;SDS011;61452;40.054;4.110;2023-06-10T22:14:50;2.00;;;1.50;;
73239;SDS011;61452;40.054;4.110;2023-06-10T22:19:52;2.55;;;1.73;;
73239;SDS011;61452;40.054;4.110;2023-06-10T22:24:55;2.42;;;1.70;;
73239;SDS011;61452;40.054;4.110;2023-06-10T22:29:57;2.13;;;1.70;;
73239;SDS011;61452;40.054;4.110;2023-06-10T22:35:00;3.25;;;1.90;;
73239;SDS011;61452;40.054;4.110;2023-06-10T22:40:02;2.70;;;2.00;;
73239;SDS011;61452;40.054;4.110;2023-06-10T22:45:05;2.78;;;1.55;;
73239;SDS011;61452;40.054;4.110;2023-06-10T22:50:08;2.75;;;1.98;;
73239;SDS011;61452;40.054;4.110;2023-06-10T22:55:11;2.80;;;1.70;;
73239;SDS011;61452;40.054;4.110;2023-06-10T23:00:14;2.63;;;1.88;;
73239;SDS011;61452;40.054;4.110;2023-06-10T23:05:17;2.72;;;1.70;;
73239;SDS011;61452;40.054;4.110;2023-06-10T23:10:19;2.13;;;1.80;;
73239;SDS011;61452;40.054;4.110;2023-06-10T23:15:21;3.42;;;1.80;;
73239;SDS011;61452;40.054;4.110;2023-06-10T23:20:23;2.67;;;1.60;;
73239;SDS011;61452;40.054;4.110;2023-06-10T23:25:25;2.67;;;1.63;;
73239;SDS011;61452;40.054;4.110;2023-06-10T23:30:27;2.13;;;1.30;;
73239;SDS011;61452;40.054;4.110;2023-06-10T23:35:29;2.58;;;1.80;;
73239;SDS011;61452;40.054;4.110;2023-06-10T23:40:31;2.63;;;1.88;;
73239;SDS011;61452;40.054;4.110;2023-06-10T23:45:34;3.08;;;1.60;;
73239;SDS011;61452;40.054;4.110;2023-06-10T23:50:36;3.80;;;1.75;;
